sensor_id;sensor_type;location;lat;lon;timestamp;pressure;altitude;pressure_sealevel;temperature;humidity
42725;BME280;28369;44.046;23.014;2023-02-23T00:02:25;101054.94;;;11.14;55.53
42725;BME280;28369;44.046;23.014;2023-02-23T00:04:51;101107.06;;;11.31;55.85
42725;BME280;28369;44.046;23.014;2023-02-23T00:10:38;101008.47;;;10.69;57.10
42725;BME280;28369;44.046;23.014;2023-02-23T00:13:03;101090.06;;;11.24;57.27
42725;BME280;28369;44.046;23.014;2023-02-23T00:15:29;101119.13;;;11.45;57.22
42725;BME280;28369;44.046;23.014;2023-02-23T00:17:55;100987.91;;;10.74;56.91
42725;BME280;28369;44.046;23.014;2023-02-23T00:20:23;101071.41;;;11.27;56.85
42725;BME280;28369;44.046;23.014;2023-02-23T00:26:27;101072.25;;;11.39;57.40
42725;BME280;28369;44.046;23.014;2023-02-23T00:28:59;101123.84;;;11.74;57.05
42725;BME280;28369;44.046;23.014;2023-02-23T00:31:25;101133.38;;;11.86;56.61
42725;BME280;28369;44.046;23.014;2023-02-23T00:37:17;101122.03;;;11.74;56.82
42725;BME280;28369;44.046;23.014;2023-02-23T00:39:43;101126.34;;;11.75;56.46
42725;BME280;28369;44.046;23.014;2023-02-23T00:42:08;101086.31;;;11.49;56.72
42725;BME280;28369;44.046;23.014;2023-02-23T00:44:34;101070.06;;;11.44;56.95
42725;BME280;28369;44.046;23.014;2023-02-23T00:47:00;101133.16;;;11.78;57.23
42725;BME280;28369;44.046;23.014;2023-02-23T00:49:26;101100.16;;;11.63;56.65
42725;BME280;28369;44.046;23.014;2023-02-23T00:51:52;100975.13;;;10.69;57.30
42725;BME280;28369;44.046;23.014;2023-02-23T00:54:19;101097.03;;;11.25;57.79
42725;BME280;28369;44.046;23.014;2023-02-23T00:56:45;101091.88;;;11.35;57.44
42725;BME280;28369;44.046;23.014;2023-02-23T00:59:12;101137.97;;;11.62;57.06
42725;BME280;28369;44.046;23.014;2023-02-23T01:01:39;101007.25;;;10.73;57.20
42725;BME280;28369;44.046;23.014;2023-02-23T01:04:06;101073.84;;;11.19;56.87
42725;BME280;28369;44.046;23.014;2023-02-23T01:06:31;101133.69;;;11.61;57.12
42725;BME280;28369;44.046;23.014;2023-02-23T01:08:57;101149.44;;;11.83;56.52
42725;BME280;28369;44.046;23.014;2023-02-23T01:11:26;100950.78;;;10.56;56.39
42725;BME280;28369;44.046;23.014;2023-02-23T01:13:57;101125.91;;;11.70;56.28
42725;BME280;28369;44.046;23.014;2023-02-23T01:16:25;101020.50;;;11.05;56.19
42725;BME280;28369;44.046;23.014;2023-02-23T01:18:53;101128.84;;;11.77;55.97
42725;BME280;28369;44.046;23.014;2023-02-23T01:21:30;101126.69;;;11.82;55.63
42725;BME280;28369;44.046;23.014;2023-02-23T01:23:57;101122.91;;;11.64;56.13
42725;BME280;28369;44.046;23.014;2023-02-23T01:26:29;101093.03;;;11.53;55.83
42725;BME280;28369;44.046;23.014;2023-02-23T01:28:57;101116.13;;;11.50;55.69
42725;BME280;28369;44.046;23.014;2023-02-23T01:31:25;100903.06;;;10.04;56.10
42725;BME280;28369;44.046;23.014;2023-02-23T01:37:13;100993.84;;;9.37;60.62
42725;BME280;28369;44.046;23.014;2023-02-23T01:39:38;101136.94;;;10.62;58.82
42725;BME280;28369;44.046;23.014;2023-02-23T01:42:08;101161.03;;;10.80;58.31
42725;BME280;28369;44.046;23.014;2023-02-23T01:47:04;101043.44;;;9.89;59.94
42725;BME280;28369;44.046;23.014;2023-02-23T01:49:32;101137.19;;;10.59;59.16
42725;BME280;28369;44.046;23.014;2023-02-23T01:52:02;101180.50;;;11.12;58.35
42725;BME280;28369;44.046;23.014;2023-02-23T01:54:32;101111.38;;;10.98;57.99
42725;BME280;28369;44.046;23.014;2023-02-23T01:57:01;101024.66;;;10.29;58.53
42725;BME280;28369;44.046;23.014;2023-02-23T01:59:32;101097.78;;;10.93;57.74
42725;BME280;28369;44.046;23.014;2023-02-23T02:02:00;101120.72;;;11.25;57.05
42725;BME280;28369;44.046;23.014;2023-02-23T02:04:25;101012.53;;;10.39;56.62
42725;BME280;28369;44.046;23.014;2023-02-23T02:06:53;101161.00;;;11.37;56.09
42725;BME280;28369;44.046;23.014;2023-02-23T02:09:22;100933.38;;;9.85;55.37
42725;BME280;28369;44.046;23.014;2023-02-23T02:11:52;101183.00;;;11.58;55.03
42725;BME280;28369;44.046;23.014;2023-02-23T02:14:26;101130.53;;;10.78;55.82
42725;BME280;28369;44.046;23.014;2023-02-23T02:42:34;101204.31;;;10.99;56.07
42725;BME280;28369;44.046;23.014;2023-02-23T02:47:42;101208.81;;;10.38;59.43
42725;BME280;28369;44.046;23.014;2023-02-23T02:50:20;101025.38;;;9.48;58.53
42725;BME280;28369;44.046;23.014;2023-02-23T02:52:58;101221.72;;;10.77;57.76
42725;BME280;28369;44.046;23.014;2023-02-23T02:55:31;101185.47;;;10.58;57.22
42725;BME280;28369;44.046;23.014;2023-02-23T02:58:01;101169.56;;;10.60;56.66
42725;BME280;28369;44.046;23.014;2023-02-23T03:00:39;101173.06;;;10.71;56.35
42725;BME280;28369;44.046;23.014;2023-02-23T03:06:15;101232.91;;;10.57;58.22
42725;BME280;28369;44.046;23.014;2023-02-23T03:15:44;101233.84;;;10.91;56.07
42725;BME280;28369;44.046;23.014;2023-02-23T03:22:23;101241.34;;;10.84;56.01
42725;BME280;28369;44.046;23.014;2023-02-23T03:25:44;101103.44;;;9.33;58.48
42725;BME280;28369;44.046;23.014;2023-02-23T03:28:49;101177.97;;;9.68;59.29
42725;BME280;28369;44.046;23.014;2023-02-23T03:34:28;100973.13;;;8.60;58.40
42725;BME280;28369;44.046;23.014;2023-02-23T03:37:20;101260.25;;;9.93;59.81
42725;BME280;28369;44.046;23.014;2023-02-23T03:40:15;101203.19;;;9.71;60.29
42725;BME280;28369;44.046;23.014;2023-02-23T03:43:05;101181.47;;;9.56;60.27
42725;BME280;28369;44.046;23.014;2023-02-23T03:45:51;101201.25;;;9.85;59.63
42725;BME280;28369;44.046;23.014;2023-02-23T03:48:37;101072.38;;;9.03;58.96
42725;BME280;28369;44.046;23.014;2023-02-23T03:51:23;101224.34;;;9.93;59.25
42725;BME280;28369;44.046;23.014;2023-02-23T03:54:14;101098.66;;;9.14;58.71
42725;BME280;28369;44.046;23.014;2023-02-23T03:57:03;101231.56;;;10.27;57.44
42725;BME280;28369;44.046;23.014;2023-02-23T03:59:55;101265.38;;;10.80;56.52
42725;BME280;28369;44.046;23.014;2023-02-23T04:02:42;101111.19;;;9.72;56.07
42725;BME280;28369;44.046;23.014;2023-02-23T04:05:28;101258.28;;;10.20;57.27
42725;BME280;28369;44.046;23.014;2023-02-23T04:08:16;101262.59;;;10.46;56.50
42725;BME280;28369;44.046;23.014;2023-02-23T04:11:36;101288.44;;;10.76;55.87
42725;BME280;28369;44.046;23.014;2023-02-23T04:14:31;101102.25;;;9.50;56.03
42725;BME280;28369;44.046;23.014;2023-02-23T04:16:58;101263.41;;;10.35;56.44
42725;BME280;28369;44.046;23.014;2023-02-23T04:19:26;101288.94;;;9.96;58.08
42725;BME280;28369;44.046;23.014;2023-02-23T04:21:52;101272.81;;;9.76;59.41
42725;BME280;28369;44.046;23.014;2023-02-23T04:24:18;101095.97;;;8.39;60.59
42725;BME280;28369;44.046;23.014;2023-02-23T04:26:43;101205.97;;;8.66;61.90
42725;BME280;28369;44.046;23.014;2023-02-23T04:29:10;101246.28;;;9.04;62.62
42725;BME280;28369;44.046;23.014;2023-02-23T04:31:36;101070.63;;;7.99;62.59
42725;BME280;28369;44.046;23.014;2023-02-23T04:34:01;101245.88;;;9.10;62.16
42725;BME280;28369;44.046;23.014;2023-02-23T04:36:29;101187.13;;;8.99;60.94
42725;BME280;28369;44.046;23.014;2023-02-23T04:38:54;101275.88;;;9.57;60.90
42725;BME280;28369;44.046;23.014;2023-02-23T04:41:20;101234.13;;;9.28;61.27
42725;BME280;28369;44.046;23.014;2023-02-23T04:43:45;101164.06;;;8.92;61.37
42725;BME280;28369;44.046;23.014;2023-02-23T04:46:11;101256.16;;;9.39;60.36
42725;BME280;28369;44.046;23.014;2023-02-23T04:48:36;101141.19;;;8.68;60.25
42725;BME280;28369;44.046;23.014;2023-02-23T04:51:02;101299.09;;;9.63;60.21
42725;BME280;28369;44.046;23.014;2023-02-23T04:53:28;101069.81;;;8.11;59.98
42725;BME280;28369;44.046;23.014;2023-02-23T04:55:53;101282.25;;;9.02;61.29
42725;BME280;28369;44.046;23.014;2023-02-23T04:58:19;101289.09;;;8.64;60.73
42725;BME280;28369;44.046;23.014;2023-02-23T05:00:44;101023.28;;;7.22;61.29
42725;BME280;28369;44.046;23.014;2023-02-23T05:03:10;101246.84;;;8.41;62.11
42725;BME280;28369;44.046;23.014;2023-02-23T05:05:37;101140.72;;;8.08;61.56
42725;BME280;28369;44.046;23.014;2023-02-23T05:08:02;101099.81;;;7.38;63.21
42725;BME280;28369;44.046;23.014;2023-02-23T05:10:28;101308.75;;;8.71;63.69
42725;BME280;28369;44.046;23.014;2023-02-23T05:12:54;101184.63;;;8.05;63.08
42725;BME280;28369;44.046;23.014;2023-02-23T05:15:19;101303.28;;;8.74;63.10
42725;BME280;28369;44.046;23.014;2023-02-23T05:17:45;101299.06;;;8.59;63.72
42725;BME280;28369;44.046;23.014;2023-02-23T05:20:12;101248.00;;;8.37;63.45
42725;BME280;28369;44.046;23.014;2023-02-23T05:22:38;101138.06;;;7.95;62.04
42725;BME280;28369;44.046;23.014;2023-02-23T05:25:05;101299.75;;;8.88;61.71
42725;BME280;28369;44.046;23.014;2023-02-23T05:27:31;101265.97;;;8.71;61.56
42725;BME280;28369;44.046;23.014;2023-02-23T05:29:57;101142.44;;;7.82;62.45
42725;BME280;28369;44.046;23.014;2023-02-23T05:32:22;101306.44;;;8.67;62.38
42725;BME280;28369;44.046;23.014;2023-02-23T05:34:48;101287.09;;;8.55;62.21
42725;BME280;28369;44.046;23.014;2023-02-23T05:37:14;101133.81;;;7.38;62.39
42725;BME280;28369;44.046;23.014;2023-02-23T05:39:39;101247.88;;;8.26;62.46
42725;BME280;28369;44.046;23.014;2023-02-23T05:42:04;101300.09;;;8.56;62.24
42725;BME280;28369;44.046;23.014;2023-02-23T05:44:30;101190.94;;;8.15;61.17
42725;BME280;28369;44.046;23.014;2023-02-23T05:46:55;101286.63;;;8.75;60.46
42725;BME280;28369;44.046;23.014;2023-02-23T05:49:21;101107.84;;;7.77;60.26
42725;BME280;28369;44.046;23.014;2023-02-23T05:51:47;101360.47;;;9.22;60.82
42725;BME280;28369;44.046;23.014;2023-02-23T05:54:12;101231.44;;;8.64;59.89
42725;BME280;28369;44.046;23.014;2023-02-23T05:56:38;101335.56;;;8.62;61.64
42725;BME280;28369;44.046;23.014;2023-02-23T05:59:04;101359.22;;;9.28;60.07
42725;BME280;28369;44.046;23.014;2023-02-23T06:01:30;101300.25;;;8.68;60.03
42725;BME280;28369;44.046;23.014;2023-02-23T06:03:55;101314.38;;;8.65;61.07
42725;BME280;28369;44.046;23.014;2023-02-23T06:06:21;101225.84;;;8.56;59.46
42725;BME280;28369;44.046;23.014;2023-02-23T06:08:48;101243.78;;;9.02;57.97
42725;BME280;28369;44.046;23.014;2023-02-23T06:11:14;101314.41;;;9.31;58.48
42725;BME280;28369;44.046;23.014;2023-02-23T06:13:39;101284.06;;;9.52;57.16
42725;BME280;28369;44.046;23.014;2023-02-23T06:16:06;101318.91;;;9.80;56.77
42725;BME280;28369;44.046;23.014;2023-02-23T06:18:33;101383.16;;;10.26;56.56
42725;BME280;28369;44.046;23.014;2023-02-23T06:20:59;101349.47;;;9.81;57.05
42725;BME280;28369;44.046;23.014;2023-02-23T06:23:26;101347.69;;;9.82;57.02
42725;BME280;28369;44.046;23.014;2023-02-23T06:25:52;101333.16;;;10.02;56.50
42725;BME280;28369;44.046;23.014;2023-02-23T06:28:17;101217.22;;;9.20;57.05
42725;BME280;28369;44.046;23.014;2023-02-23T06:30:43;101356.69;;;10.03;57.64
42725;BME280;28369;44.046;23.014;2023-02-23T06:33:10;101405.22;;;10.36;58.13
42725;BME280;28369;44.046;23.014;2023-02-23T06:35:36;101282.69;;;9.60;59.12
42725;BME280;28369;44.046;23.014;2023-02-23T06:38:02;101346.38;;;10.13;58.69
42725;BME280;28369;44.046;23.014;2023-02-23T06:40:28;101398.16;;;10.74;58.46
42725;BME280;28369;44.046;23.014;2023-02-23T06:42:54;101344.63;;;10.75;57.68
42725;BME280;28369;44.046;23.014;2023-02-23T06:45:19;101364.59;;;11.02;57.89
42725;BME280;28369;44.046;23.014;2023-02-23T06:47:46;101312.03;;;11.24;56.67
42725;BME280;28369;44.046;23.014;2023-02-23T06:50:12;101417.28;;;11.71;56.66
42725;BME280;28369;44.046;23.014;2023-02-23T06:52:38;101294.09;;;11.41;55.39
42725;BME280;28369;44.046;23.014;2023-02-23T06:55:04;101375.81;;;12.09;53.83
42725;BME280;28369;44.046;23.014;2023-02-23T06:57:30;101418.66;;;12.56;53.30
42725;BME280;28369;44.046;23.014;2023-02-23T06:59:55;101450.59;;;12.86;51.04
42725;BME280;28369;44.046;23.014;2023-02-23T07:02:21;101176.22;;;11.45;51.03
42725;BME280;28369;44.046;23.014;2023-02-23T07:04:46;101395.81;;;13.10;50.21
42725;BME280;28369;44.046;23.014;2023-02-23T07:07:13;101417.91;;;13.42;49.99
42725;BME280;28369;44.046;23.014;2023-02-23T07:09:39;101364.88;;;13.01;50.24
42725;BME280;28369;44.046;23.014;2023-02-23T07:12:05;101350.94;;;13.10;48.79
42725;BME280;28369;44.046;23.014;2023-02-23T07:14:31;101396.44;;;13.35;47.58
42725;BME280;28369;44.046;23.014;2023-02-23T07:16:57;101387.78;;;13.54;47.61
42725;BME280;28369;44.046;23.014;2023-02-23T07:19:23;101382.97;;;13.38;47.38
42725;BME280;28369;44.046;23.014;2023-02-23T07:21:49;101443.50;;;13.93;47.09
42725;BME280;28369;44.046;23.014;2023-02-23T07:24:15;101403.34;;;13.78;47.26
42725;BME280;28369;44.046;23.014;2023-02-23T07:26:40;101336.72;;;13.44;46.75
42725;BME280;28369;44.046;23.014;2023-02-23T07:29:10;101423.38;;;14.02;46.90
42725;BME280;28369;44.046;23.014;2023-02-23T07:31:36;101366.84;;;13.62;46.52
42725;BME280;28369;44.046;23.014;2023-02-23T07:34:02;101311.28;;;13.22;46.78
42725;BME280;28369;44.046;23.014;2023-02-23T07:36:28;101359.59;;;13.55;47.00
42725;BME280;28369;44.046;23.014;2023-02-23T07:38:53;101373.06;;;13.82;46.71
42725;BME280;28369;44.046;23.014;2023-02-23T07:41:20;101415.19;;;14.05;46.56
42725;BME280;28369;44.046;23.014;2023-02-23T07:43:46;101369.72;;;13.80;46.58
42725;BME280;28369;44.046;23.014;2023-02-23T07:46:12;101426.22;;;14.61;46.24
42725;BME280;28369;44.046;23.014;2023-02-23T07:48:40;101247.56;;;13.67;46.79
42725;BME280;28369;44.046;23.014;2023-02-23T07:51:11;101388.31;;;14.60;45.50
42725;BME280;28369;44.046;23.014;2023-02-23T07:53:38;101442.19;;;14.80;45.96
42725;BME280;28369;44.046;23.014;2023-02-23T07:56:04;101438.28;;;14.94;45.40
42725;BME280;28369;44.046;23.014;2023-02-23T07:58:30;101391.63;;;14.43;45.93
42725;BME280;28369;44.046;23.014;2023-02-23T08:00:57;101270.31;;;13.99;45.04
42725;BME280;28369;44.046;23.014;2023-02-23T08:03:23;101408.72;;;14.79;45.12
42725;BME280;28369;44.046;23.014;2023-02-23T08:05:48;101416.06;;;14.15;46.13
42725;BME280;28369;44.046;23.014;2023-02-23T08:08:14;101401.06;;;15.06;45.42
42725;BME280;28369;44.046;23.014;2023-02-23T08:10:39;101392.59;;;15.02;45.08
42725;BME280;28369;44.046;23.014;2023-02-23T08:13:05;101288.63;;;14.51;44.01
42725;BME280;28369;44.046;23.014;2023-02-23T08:15:30;101456.78;;;15.82;43.95
42725;BME280;28369;44.046;23.014;2023-02-23T08:17:56;101402.19;;;15.23;43.72
42725;BME280;28369;44.046;23.014;2023-02-23T08:20:21;101403.56;;;15.17;43.24
42725;BME280;28369;44.046;23.014;2023-02-23T08:22:54;101450.00;;;15.31;43.51
42725;BME280;28369;44.046;23.014;2023-02-23T08:25:20;101415.41;;;15.52;43.86
42725;BME280;28369;44.046;23.014;2023-02-23T08:31:08;101434.75;;;15.72;42.74
42725;BME280;28369;44.046;23.014;2023-02-23T08:33:34;101424.81;;;15.94;42.61
42725;BME280;28369;44.046;23.014;2023-02-23T08:39:25;101427.06;;;15.79;43.12
42725;BME280;28369;44.046;23.014;2023-02-23T08:45:16;101445.06;;;15.95;42.87
42725;BME280;28369;44.046;23.014;2023-02-23T08:51:07;101466.00;;;15.68;42.79
42725;BME280;28369;44.046;23.014;2023-02-23T08:57:01;101424.38;;;16.26;42.31
42725;BME280;28369;44.046;23.014;2023-02-23T09:02:57;101470.84;;;16.30;41.63
42725;BME280;28369;44.046;23.014;2023-02-23T09:08:49;101438.84;;;16.04;41.48
42725;BME280;28369;44.046;23.014;2023-02-23T09:14:53;101484.41;;;16.65;41.58
42725;BME280;28369;44.046;23.014;2023-02-23T09:17:19;101449.47;;;16.32;41.63
42725;BME280;28369;44.046;23.014;2023-02-23T09:19:47;101354.66;;;15.68;41.53
42725;BME280;28369;44.046;23.014;2023-02-23T09:22:13;101440.56;;;16.33;41.54
42725;BME280;28369;44.046;23.014;2023-02-23T09:28:37;101481.66;;;16.74;41.45
42725;BME280;28369;44.046;23.014;2023-02-23T09:31:10;101360.53;;;15.72;42.05
42725;BME280;28369;44.046;23.014;2023-02-23T09:33:36;101407.47;;;15.99;41.74
42725;BME280;28369;44.046;23.014;2023-02-23T09:36:10;101365.06;;;15.52;42.33
42725;BME280;28369;44.046;23.014;2023-02-23T09:38:43;101482.44;;;16.67;41.56
42725;BME280;28369;44.046;23.014;2023-02-23T09:43:57;101313.78;;;15.81;41.90
42725;BME280;28369;44.046;23.014;2023-02-23T09:46:50;101505.88;;;16.99;41.37
42725;BME280;28369;44.046;23.014;2023-02-23T09:49:21;101482.56;;;16.65;41.46
42725;BME280;28369;44.046;23.014;2023-02-23T09:51:51;101485.47;;;16.72;41.27
42725;BME280;28369;44.046;23.014;2023-02-23T09:54:23;101462.47;;;16.63;41.37
42725;BME280;28369;44.046;23.014;2023-02-23T09:56:51;101351.28;;;16.14;41.20
42725;BME280;28369;44.046;23.014;2023-02-23T09:59:19;101366.97;;;16.35;40.64
42725;BME280;28369;44.046;23.014;2023-02-23T10:05:04;101498.16;;;17.24;40.80
42725;BME280;28369;44.046;23.014;2023-02-23T10:15:54;101489.25;;;17.69;40.75
42725;BME280;28369;44.046;23.014;2023-02-23T10:23:41;101479.34;;;17.61;40.00
42725;BME280;28369;44.046;23.014;2023-02-23T10:26:16;101330.88;;;16.96;39.37
42725;BME280;28369;44.046;23.014;2023-02-23T10:28:42;101457.66;;;17.66;39.31
42725;BME280;28369;44.046;23.014;2023-02-23T10:33:51;101303.75;;;16.66;39.79
42725;BME280;28369;44.046;23.014;2023-02-23T10:36:30;101465.50;;;17.94;39.79
42725;BME280;28369;44.046;23.014;2023-02-23T10:38:59;101473.88;;;18.07;39.44
42725;BME280;28369;44.046;23.014;2023-02-23T10:41:24;101229.50;;;16.56;39.42
42725;BME280;28369;44.046;23.014;2023-02-23T10:43:50;101442.41;;;17.76;39.13
42725;BME280;28369;44.046;23.014;2023-02-23T10:46:21;101322.53;;;17.35;39.74
42725;BME280;28369;44.046;23.014;2023-02-23T10:48:49;101331.81;;;17.31;39.41
42725;BME280;28369;44.046;23.014;2023-02-23T10:51:21;101426.50;;;18.11;39.46
42725;BME280;28369;44.046;23.014;2023-02-23T10:53:49;101436.13;;;18.04;39.23
42725;BME280;28369;44.046;23.014;2023-02-23T10:56:16;101256.56;;;17.04;39.14
42725;BME280;28369;44.046;23.014;2023-02-23T10:58:54;101303.09;;;17.35;39.32
42725;BME280;28369;44.046;23.014;2023-02-23T11:01:40;101467.66;;;18.25;39.02
42725;BME280;28369;44.046;23.014;2023-02-23T11:06:43;101425.84;;;18.60;38.01
42725;BME280;28369;44.046;23.014;2023-02-23T11:09:35;101455.94;;;18.52;38.50
42725;BME280;28369;44.046;23.014;2023-02-23T11:14:54;101403.88;;;18.07;38.90
42725;BME280;28369;44.046;23.014;2023-02-23T11:19:51;101442.50;;;18.62;38.55
42725;BME280;28369;44.046;23.014;2023-02-23T11:22:23;101295.13;;;17.69;38.61
42725;BME280;28369;44.046;23.014;2023-02-23T11:28:34;101417.63;;;18.88;38.08
42725;BME280;28369;44.046;23.014;2023-02-23T11:34:35;101421.13;;;19.13;38.18
42725;BME280;28369;44.046;23.014;2023-02-23T11:37:19;101281.50;;;18.15;38.26
42725;BME280;28369;44.046;23.014;2023-02-23T11:39:53;101288.00;;;18.21;38.36
42725;BME280;28369;44.046;23.014;2023-02-23T11:42:27;101373.41;;;18.60;38.41
42725;BME280;28369;44.046;23.014;2023-02-23T11:47:38;101394.47;;;19.21;37.96
42725;BME280;28369;44.046;23.014;2023-02-23T11:50:05;101239.47;;;18.43;37.62
42725;BME280;28369;44.046;23.014;2023-02-23T11:52:31;101399.81;;;19.21;37.79
42725;BME280;28369;44.046;23.014;2023-02-23T11:54:59;101289.16;;;18.18;37.98
42725;BME280;28369;44.046;23.014;2023-02-23T11:57:28;101277.84;;;18.16;38.10
42725;BME280;28369;44.046;23.014;2023-02-23T11:59:55;101381.59;;;18.67;38.26
42725;BME280;28369;44.046;23.014;2023-02-23T12:02:27;101346.81;;;18.77;38.12
42725;BME280;28369;44.046;23.014;2023-02-23T12:05:17;101422.78;;;19.30;37.41
42725;BME280;28369;44.046;23.014;2023-02-23T12:08:10;101281.69;;;18.30;38.50
42725;BME280;28369;44.046;23.014;2023-02-23T12:10:50;101399.13;;;18.94;38.24
42725;BME280;28369;44.046;23.014;2023-02-23T12:16:44;101363.66;;;19.27;38.34
42725;BME280;28369;44.046;23.014;2023-02-23T12:19:40;101378.47;;;19.13;38.32
42725;BME280;28369;44.046;23.014;2023-02-23T12:22:18;101387.28;;;19.46;38.39
42725;BME280;28369;44.046;23.014;2023-02-23T12:24:57;101238.13;;;18.64;37.91
42725;BME280;28369;44.046;23.014;2023-02-23T12:27:39;101341.69;;;19.16;37.83
42725;BME280;28369;44.046;23.014;2023-02-23T12:30:30;101402.47;;;19.29;38.24
42725;BME280;28369;44.046;23.014;2023-02-23T12:39:56;101327.19;;;19.11;38.33
42725;BME280;28369;44.046;23.014;2023-02-23T12:45:53;101387.56;;;19.76;37.79
42725;BME280;28369;44.046;23.014;2023-02-23T12:48:37;101343.78;;;19.46;37.57
42725;BME280;28369;44.046;23.014;2023-02-23T13:01:02;101393.53;;;19.78;38.35
42725;BME280;28369;44.046;23.014;2023-02-23T13:12:26;101407.25;;;19.67;37.92
42725;BME280;28369;44.046;23.014;2023-02-23T13:17:40;101251.59;;;18.79;37.86
42725;BME280;28369;44.046;23.014;2023-02-23T13:20:26;101414.78;;;19.30;38.67
42725;BME280;28369;44.046;23.014;2023-02-23T13:25:56;101344.16;;;18.77;39.20
42725;BME280;28369;44.046;23.014;2023-02-23T13:28:51;101267.88;;;18.35;39.08
42725;BME280;28369;44.046;23.014;2023-02-23T13:31:35;101336.00;;;18.78;39.10
42725;BME280;28369;44.046;23.014;2023-02-23T13:34:03;101273.19;;;18.18;39.62
42725;BME280;28369;44.046;23.014;2023-02-23T13:36:31;101298.19;;;18.34;39.57
42725;BME280;28369;44.046;23.014;2023-02-23T13:45:39;101407.22;;;18.60;40.35
42725;BME280;28369;44.046;23.014;2023-02-23T13:51:40;101414.84;;;18.46;41.08
42725;BME280;28369;44.046;23.014;2023-02-23T13:57:30;101417.25;;;18.31;41.16
42725;BME280;28369;44.046;23.014;2023-02-23T13:59:56;101410.88;;;18.16;41.61
42725;BME280;28369;44.046;23.014;2023-02-23T14:02:38;101405.66;;;17.98;41.84
42725;BME280;28369;44.046;23.014;2023-02-23T14:05:19;101442.97;;;18.06;42.09
42725;BME280;28369;44.046;23.014;2023-02-23T14:07:58;101397.72;;;17.80;42.18
42725;BME280;28369;44.046;23.014;2023-02-23T14:14:04;101395.00;;;17.72;42.81
42725;BME280;28369;44.046;23.014;2023-02-23T14:16:30;101361.91;;;17.40;42.38
42725;BME280;28369;44.046;23.014;2023-02-23T14:19:30;101434.75;;;17.73;43.11
42725;BME280;28369;44.046;23.014;2023-02-23T14:28:43;101439.22;;;17.28;43.75
42725;BME280;28369;44.046;23.014;2023-02-23T14:42:05;101404.16;;;16.71;44.22
42725;BME280;28369;44.046;23.014;2023-02-23T14:44:35;101423.50;;;16.81;44.50
42725;BME280;28369;44.046;23.014;2023-02-23T14:47:21;101430.69;;;17.17;44.11
42725;BME280;28369;44.046;23.014;2023-02-23T14:49:56;101408.84;;;17.05;44.38
42725;BME280;28369;44.046;23.014;2023-02-23T14:52:34;101457.91;;;17.19;44.34
42725;BME280;28369;44.046;23.014;2023-02-23T14:58:30;101389.63;;;16.29;45.01
42725;BME280;28369;44.046;23.014;2023-02-23T15:00:58;101441.19;;;16.72;44.72
42725;BME280;28369;44.046;23.014;2023-02-23T15:03:23;101446.59;;;16.53;45.22
42725;BME280;28369;44.046;23.014;2023-02-23T15:05:53;101433.81;;;16.11;45.80
42725;BME280;28369;44.046;23.014;2023-02-23T15:08:28;101314.75;;;15.32;46.05
42725;BME280;28369;44.046;23.014;2023-02-23T15:11:10;101448.50;;;16.33;45.80
42725;BME280;28369;44.046;23.014;2023-02-23T15:13:40;101376.06;;;15.47;46.31
42725;BME280;28369;44.046;23.014;2023-02-23T15:16:13;101403.09;;;15.70;46.05
42725;BME280;28369;44.046;23.014;2023-02-23T15:18:41;101437.63;;;15.98;46.54
42725;BME280;28369;44.046;23.014;2023-02-23T15:21:33;101446.97;;;16.02;46.37
42725;BME280;28369;44.046;23.014;2023-02-23T15:24:09;101476.47;;;16.27;46.37
42725;BME280;28369;44.046;23.014;2023-02-23T15:26:37;101321.72;;;15.33;46.65
42725;BME280;28369;44.046;23.014;2023-02-23T15:29:36;101466.16;;;16.24;46.44
42725;BME280;28369;44.046;23.014;2023-02-23T15:32:20;101440.16;;;15.90;46.53
42725;BME280;28369;44.046;23.014;2023-02-23T15:34:53;101402.84;;;15.34;47.30
42725;BME280;28369;44.046;23.014;2023-02-23T15:37:32;101470.34;;;15.79;47.28
42725;BME280;28369;44.046;23.014;2023-02-23T15:40:20;101457.53;;;15.45;48.08
42725;BME280;28369;44.046;23.014;2023-02-23T15:46:22;101353.84;;;15.01;47.65
42725;BME280;28369;44.046;23.014;2023-02-23T15:52:19;101433.44;;;15.19;47.66
42725;BME280;28369;44.046;23.014;2023-02-23T15:55:07;101313.69;;;14.57;47.69
42725;BME280;28369;44.046;23.014;2023-02-23T16:00:53;101442.72;;;14.84;48.54
42725;BME280;28369;44.046;23.014;2023-02-23T16:03:39;101505.47;;;15.13;48.56
42725;BME280;28369;44.046;23.014;2023-02-23T16:06:25;101479.25;;;15.00;48.76
42725;BME280;28369;44.046;23.014;2023-02-23T16:12:16;101450.38;;;14.67;48.70
42725;BME280;28369;44.046;23.014;2023-02-23T16:14:52;101372.78;;;14.16;48.94
42725;BME280;28369;44.046;23.014;2023-02-23T16:23:01;101459.69;;;14.31;49.41
42725;BME280;28369;44.046;23.014;2023-02-23T16:25:28;101445.13;;;14.15;49.51
42725;BME280;28369;44.046;23.014;2023-02-23T16:28:04;101468.72;;;14.28;49.25
42725;BME280;28369;44.046;23.014;2023-02-23T16:30:38;101385.59;;;13.80;49.35
42725;BME280;28369;44.046;23.014;2023-02-23T16:35:43;101396.41;;;13.77;49.35
42725;BME280;28369;44.046;23.014;2023-02-23T16:38:22;101529.91;;;14.45;49.17
42725;BME280;28369;44.046;23.014;2023-02-23T16:40:48;101461.63;;;13.98;49.47
42725;BME280;28369;44.046;23.014;2023-02-23T16:43:14;101518.66;;;14.52;49.07
42725;BME280;28369;44.046;23.014;2023-02-23T16:45:40;101480.44;;;14.35;48.74
42725;BME280;28369;44.046;23.014;2023-02-23T16:48:17;101514.81;;;14.35;49.02
42725;BME280;28369;44.046;23.014;2023-02-23T16:50:43;101486.47;;;14.16;48.65
42725;BME280;28369;44.046;23.014;2023-02-23T16:53:11;101544.78;;;14.67;48.71
42725;BME280;28369;44.046;23.014;2023-02-23T16:55:39;101510.06;;;14.29;48.91